Time;durP1;ratioP1;P1;durP2;ratioP2;P2;SDS_P1;SDS_P2;PMS_P1;PMS_P2;Temp;Humidity;BMP_temperature;BMP_pressure;BME280_temperature;BME280_humidity;BME280_pressure;Samples;Min_cycle;Max_cycle;Signal;HPM_P1;HPM_P2
2023/12/30 00:02:21;;;;;;;11.65;1.77;;;6.80;99.90;;;;;;5065140;28;20139;-49
2023/12/30 00:04:47;;;;;;;11.48;2.08;;;6.80;99.90;;;;;;5065088;28;20048;-49
2023/12/30 00:07:13;;;;;;;13.35;3.10;;;6.80;99.90;;;;;;5065002;28;20036;-49
2023/12/30 00:09:39;;;;;;;7.40;1.70;;;6.80;99.90;;;;;;5064471;28;20041;-49
2023/12/30 00:12:05;;;;;;;8.82;1.75;;;6.70;99.90;;;;;;5063946;28;20248;-49
2023/12/30 00:14:30;;;;;;;12.43;1.85;;;6.70;99.90;;;;;;5064991;28;20078;-50
2023/12/30 00:16:56;;;;;;;27.98;6.53;;;6.70;99.90;;;;;;5065022;28;20024;-49
2023/12/30 00:19:22;;;;;;;8.02;1.83;;;6.70;99.90;;;;;;5063590;28;20187;-50
2023/12/30 00:21:47;;;;;;;9.85;2.45;;;6.70;99.90;;;;;;5063752;28;20025;-46
2023/12/30 00:24:13;;;;;;;10.38;2.38;;;6.70;99.90;;;;;;5064383;28;20262;-45
2023/12/30 00:26:39;;;;;;;9.35;2.45;;;6.70;99.90;;;;;;5064611;28;20194;-46
2023/12/30 00:29:05;;;;;;;13.70;3.40;;;6.70;99.90;;;;;;5065183;28;20258;-48
2023/12/30 00:31:30;;;;;;;13.27;1.95;;;6.70;99.90;;;;;;5068293;28;20020;-49
2023/12/30 00:33:58;;;;;;;8.50;1.90;;;6.60;99.90;;;;;;5068308;28;20309;-48
2023/12/30 00:36:24;;;;;;;13.23;2.60;;;6.70;99.90;;;;;;5067396;28;20032;-45
2023/12/30 00:38:50;;;;;;;14.20;2.90;;;6.60;99.90;;;;;;5068289;28;20096;-45
2023/12/30 00:41:16;;;;;;;11.77;2.10;;;6.60;99.90;;;;;;5050525;28;20037;-45
2023/12/30 00:43:41;;;;;;;9.38;2.10;;;6.60;99.90;;;;;;5067233;28;20028;-45
2023/12/30 00:46:07;;;;;;;8.27;2.47;;;6.50;99.90;;;;;;5068150;28;20033;-46
2023/12/30 00:48:33;;;;;;;13.10;2.90;;;6.60;99.90;;;;;;5068120;28;20033;-45
2023/12/30 00:51:01;;;;;;;7.18;1.30;;;6.50;99.90;;;;;;5068129;28;20024;-45
2023/12/30 00:53:27;;;;;;;13.90;3.17;;;6.50;99.90;;;;;;5067856;28;20024;-45
2023/12/30 00:55:53;;;;;;;11.05;3.33;;;6.50;99.90;;;;;;5067542;28;20078;-47
2023/12/30 00:58:20;;;;;;;13.88;3.97;;;6.50;99.90;;;;;;5067492;28;20017;-46
2023/12/30 01:00:46;;;;;;;15.27;4.20;;;6.50;99.90;;;;;;5066977;28;20036;-49
2023/12/30 01:03:11;;;;;;;7.55;2.20;;;6.50;99.90;;;;;;5067829;28;20032;-49
2023/12/30 01:05:37;;;;;;;12.27;3.58;;;6.50;99.90;;;;;;5067821;28;20191;-49
2023/12/30 01:08:03;;;;;;;14.00;4.13;;;6.40;99.90;;;;;;5067592;28;20056;-49
2023/12/30 01:10:29;;;;;;;14.60;3.63;;;6.40;99.90;;;;;;5066744;28;20041;-47
2023/12/30 01:12:54;;;;;;;16.15;3.22;;;6.40;99.90;;;;;;5067313;28;20028;-47
2023/12/30 01:15:20;;;;;;;15.82;4.47;;;6.50;99.90;;;;;;5067678;28;20193;-49
2023/12/30 01:17:46;;;;;;;11.18;2.38;;;6.40;99.90;;;;;;5067501;28;20202;-48
2023/12/30 01:20:11;;;;;;;10.55;2.67;;;6.40;99.90;;;;;;5066544;28;20047;-49
2023/12/30 01:22:37;;;;;;;7.80;1.88;;;6.40;99.90;;;;;;5067622;28;20039;-49
2023/12/30 01:25:03;;;;;;;15.23;4.55;;;6.50;99.90;;;;;;5067092;28;20040;-47
2023/12/30 01:27:29;;;;;;;9.40;3.03;;;6.50;99.90;;;;;;5067278;28;20088;-49
2023/12/30 01:29:54;;;;;;;17.05;4.45;;;6.50;99.90;;;;;;5067409;28;20032;-49
2023/12/30 01:32:20;;;;;;;10.65;3.40;;;6.40;99.90;;;;;;5066284;28;20221;-49
2023/12/30 01:34:46;;;;;;;11.98;3.03;;;6.40;99.90;;;;;;5067286;28;20021;-47
2023/12/30 01:37:11;;;;;;;10.75;2.30;;;6.40;99.90;;;;;;5067039;28;20029;-49
2023/12/30 01:39:37;;;;;;;9.63;1.92;;;6.40;99.90;;;;;;5066872;28;20100;-47
2023/12/30 01:42:03;;;;;;;10.68;3.10;;;6.50;99.90;;;;;;5066336;28;20174;-45
2023/12/30 01:44:28;;;;;;;13.43;3.58;;;6.50;99.90;;;;;;5067371;28;20025;-45
2023/12/30 01:46:55;;;;;;;12.85;4.65;;;6.40;99.90;;;;;;5067140;28;20045;-46
2023/12/30 01:49:20;;;;;;;11.98;2.30;;;6.40;99.90;;;;;;5049421;28;20028;-47
2023/12/30 01:51:47;;;;;;;12.70;4.03;;;6.50;99.90;;;;;;5067071;28;20182;-50
2023/12/30 01:54:12;;;;;;;13.45;3.40;;;6.50;99.90;;;;;;5065964;28;20092;-50
2023/12/30 01:56:38;;;;;;;10.02;3.08;;;6.50;99.90;;;;;;5049366;28;20024;-49
2023/12/30 01:59:04;;;;;;;9.18;2.58;;;6.50;99.90;;;;;;5065692;28;20036;-49
2023/12/30 02:01:30;;;;;;;14.40;2.97;;;6.50;99.90;;;;;;5065759;28;20029;-50
2023/12/30 02:03:55;;;;;;;8.50;2.40;;;6.50;99.90;;;;;;5066808;28;20090;-47
2023/12/30 02:06:21;;;;;;;11.40;3.20;;;6.50;99.90;;;;;;5066797;28;20024;-47
2023/12/30 02:08:47;;;;;;;13.05;3.03;;;6.50;99.90;;;;;;5066376;28;20049;-46
2023/12/30 02:11:13;;;;;;;9.95;2.90;;;6.50;99.90;;;;;;5065872;28;20098;-47
2023/12/30 02:13:43;;;;;;;12.52;2.92;;;6.50;99.90;;;;;;5065560;28;20285;-48
2023/12/30 02:16:08;;;;;;;12.57;3.53;;;6.50;99.90;;;;;;5066584;28;20105;-49
2023/12/30 02:18:34;;;;;;;7.03;1.90;;;6.50;99.90;;;;;;5066467;28;20020;-48
2023/12/30 02:21:00;;;;;;;10.65;2.30;;;6.50;99.90;;;;;;5066318;28;20139;-49
2023/12/30 02:23:25;;;;;;;11.00;3.25;;;6.60;99.90;;;;;;5066360;28;20047;-49
2023/12/30 02:25:51;;;;;;;12.07;2.50;;;6.60;99.90;;;;;;5066242;28;20029;-49
2023/12/30 02:28:17;;;;;;;9.88;2.03;;;6.60;99.90;;;;;;5065379;28;20084;-46
2023/12/30 02:30:42;;;;;;;11.93;2.15;;;6.50;99.90;;;;;;5065651;28;20037;-48
2023/12/30 02:33:08;;;;;;;8.82;1.77;;;6.50;99.90;;;;;;5065024;28;20217;-47
2023/12/30 02:35:34;;;;;;;12.63;2.47;;;6.60;99.90;;;;;;5065168;28;20041;-47
2023/12/30 02:37:59;;;;;;;13.95;2.15;;;6.50;99.90;;;;;;5066023;28;20078;-47
2023/12/30 02:40:25;;;;;;;11.15;2.22;;;6.60;99.90;;;;;;5064998;28;20160;-48
2023/12/30 02:42:51;;;;;;;5.88;1.80;;;6.60;99.90;;;;;;5066159;28;20096;-49
2023/12/30 02:45:16;;;;;;;9.68;1.80;;;6.60;99.90;;;;;;5065928;28;20036;-47
2023/12/30 02:47:42;;;;;;;7.25;1.60;;;6.60;99.90;;;;;;5065649;28;20028;-49
2023/12/30 02:50:08;;;;;;;11.77;1.75;;;6.60;99.90;;;;;;5064858;28;20033;-49
2023/12/30 02:52:34;;;;;;;6.25;1.27;;;6.60;99.90;;;;;;5065290;28;20029;-47
2023/12/30 02:55:00;;;;;;;10.85;1.90;;;6.60;99.90;;;;;;5065704;28;20053;-46
2023/12/30 02:57:26;;;;;;;8.52;2.17;;;6.60;99.90;;;;;;5065833;28;20028;-46
2023/12/30 02:59:52;;;;;;;10.18;2.80;;;6.50;99.90;;;;;;5064775;28;20036;-47
2023/12/30 03:02:18;;;;;;;3.53;1.48;;;6.50;99.90;;;;;;5065352;28;20025;-46
2023/12/30 03:04:43;;;;;;;6.95;1.83;;;6.50;99.90;;;;;;5064669;28;20075;-47
2023/12/30 03:07:09;;;;;;;8.45;1.65;;;6.50;99.90;;;;;;5064809;28;20058;-47
2023/12/30 03:09:35;;;;;;;7.00;1.45;;;6.50;99.90;;;;;;5064324;28;20045;-46
2023/12/30 03:12:02;;;;;;;6.30;1.75;;;6.50;99.90;;;;;;5065502;28;20308;-48
2023/12/30 03:14:28;;;;;;;4.78;1.63;;;6.50;99.90;;;;;;5065636;28;20056;-50
2023/12/30 03:16:54;;;;;;;8.88;1.80;;;6.50;99.90;;;;;;5065582;28;20032;-49
2023/12/30 03:19:19;;;;;;;5.88;1.48;;;6.40;99.90;;;;;;5065488;28;20083;-47
2023/12/30 03:21:45;;;;;;;6.18;1.75;;;6.40;99.90;;;;;;5065356;28;20279;-49
2023/12/30 03:24:11;;;;;;;11.63;2.00;;;6.30;99.90;;;;;;5065407;28;20348;-47
2023/12/30 03:26:37;;;;;;;7.85;2.58;;;6.30;99.90;;;;;;5065467;28;20036;-47
2023/12/30 03:29:03;;;;;;;6.82;1.45;;;6.40;99.90;;;;;;5065055;28;20021;-48
2023/12/30 03:31:28;;;;;;;8.43;1.92;;;6.30;99.90;;;;;;5065583;28;20194;-46
2023/12/30 03:33:54;;;;;;;8.65;2.00;;;6.40;99.90;;;;;;5065185;28;20024;-49
2023/12/30 03:36:20;;;;;;;8.95;1.63;;;6.40;99.90;;;;;;5065336;28;20029;-48
2023/12/30 03:38:50;;;;;;;5.25;1.40;;;6.40;99.90;;;;;;5065381;28;20033;-47
2023/12/30 03:41:16;;;;;;;7.72;1.63;;;6.40;99.90;;;;;;5065232;28;20036;-46
2023/12/30 03:43:42;;;;;;;9.02;2.00;;;6.50;99.90;;;;;;5065239;28;20075;-48
2023/12/30 03:46:08;;;;;;;11.35;1.90;;;6.40;99.90;;;;;;5065231;28;20352;-46
2023/12/30 03:48:33;;;;;;;9.20;1.90;;;6.30;99.90;;;;;;5065283;28;20275;-47
2023/12/30 03:50:59;;;;;;;10.48;2.08;;;6.40;99.90;;;;;;5064675;28;20044;-49
2023/12/30 03:53:25;;;;;;;8.70;2.28;;;6.30;99.90;;;;;;5065049;28;20033;-47
2023/12/30 03:55:50;;;;;;;8.38;2.00;;;6.30;99.90;;;;;;5047463;28;20028;-47
2023/12/30 03:58:16;;;;;;;8.32;1.70;;;6.30;99.90;;;;;;5065087;28;20060;-47
2023/12/30 04:00:42;;;;;;;12.60;2.50;;;6.30;99.90;;;;;;5065080;28;20032;-49
2023/12/30 04:03:08;;;;;;;9.25;1.92;;;6.40;99.90;;;;;;5065707;28;20148;-46
2023/12/30 04:05:34;;;;;;;10.68;3.25;;;6.40;99.90;;;;;;5068555;28;20069;-46
2023/12/30 04:07:59;;;;;;;9.95;2.03;;;6.40;99.90;;;;;;5068654;28;20033;-45
2023/12/30 04:10:25;;;;;;;8.82;2.10;;;6.50;99.90;;;;;;5068961;28;20082;-46
2023/12/30 04:12:51;;;;;;;10.15;1.85;;;6.40;99.90;;;;;;5068978;28;20056;-48
2023/12/30 04:15:16;;;;;;;5.65;1.52;;;6.40;99.90;;;;;;5068594;28;20025;-48
2023/12/30 04:17:43;;;;;;;7.03;2.05;;;6.40;99.90;;;;;;5068678;28;20029;-47
2023/12/30 04:20:09;;;;;;;7.18;1.98;;;6.40;99.90;;;;;;5068521;28;20044;-48
2023/12/30 04:22:34;;;;;;;8.20;1.77;;;6.40;99.90;;;;;;5067338;28;20191;-49
2023/12/30 04:25:00;;;;;;;8.27;1.95;;;6.50;99.90;;;;;;5068560;28;20032;-48
2023/12/30 04:27:26;;;;;;;4.82;1.95;;;6.50;99.90;;;;;;5068728;28;20064;-47
2023/12/30 04:29:52;;;;;;;6.70;1.33;;;6.50;99.90;;;;;;5067614;28;20033;-48
2023/12/30 04:32:20;;;;;;;9.27;1.60;;;6.50;99.90;;;;;;5068539;28;20032;-47
2023/12/30 04:34:46;;;;;;;6.00;1.40;;;6.50;99.90;;;;;;5067455;28;20096;-47
2023/12/30 04:37:13;;;;;;;9.13;1.60;;;6.50;99.90;;;;;;5067990;28;20028;-46
2023/12/30 04:39:38;;;;;;;6.53;1.80;;;6.50;99.90;;;;;;5068278;28;20037;-46
2023/12/30 04:42:04;;;;;;;7.13;1.88;;;6.50;99.90;;;;;;5068295;28;20263;-47
2023/12/30 04:44:30;;;;;;;6.60;1.33;;;6.50;99.90;;;;;;5068359;28;20333;-47
2023/12/30 04:46:56;;;;;;;11.02;1.60;;;6.50;99.90;;;;;;5068341;28;20029;-47
2023/12/30 04:49:22;;;;;;;9.82;1.30;;;6.60;99.90;;;;;;5068267;28;20033;-46
2023/12/30 04:51:47;;;;;;;7.45;1.30;;;6.50;99.90;;;;;;5067327;28;20099;-47
2023/12/30 04:54:13;;;;;;;9.07;1.50;;;6.60;99.90;;;;;;5067281;28;20025;-46
2023/12/30 04:56:38;;;;;;;13.48;1.30;;;6.60;99.90;;;;;;5068225;28;20309;-47
2023/12/30 04:59:04;;;;;;;7.10;1.42;;;6.70;99.90;;;;;;5068299;28;20159;-47
2023/12/30 05:01:33;;;;;;;5.72;1.00;;;6.80;99.90;;;;;;5066834;28;20029;-46
2023/12/30 05:03:59;;;;;;;4.43;1.07;;;6.90;99.90;;;;;;5067840;28;20040;-46
2023/12/30 05:06:25;;;;;;;3.38;0.73;;;6.90;99.90;;;;;;5066934;28;20060;-47
2023/12/30 05:08:51;;;;;;;3.85;1.00;;;6.90;99.90;;;;;;5067302;28;20057;-46
2023/12/30 05:11:17;;;;;;;1.67;0.70;;;6.90;99.90;;;;;;5049988;28;20037;-47
2023/12/30 05:13:43;;;;;;;4.63;1.05;;;7.00;99.90;;;;;;5067634;28;20298;-48
2023/12/30 05:16:09;;;;;;;6.90;1.15;;;7.00;99.90;;;;;;5066977;28;20017;-47
2023/12/30 05:18:35;;;;;;;5.15;0.90;;;7.00;99.90;;;;;;5067680;28;20179;-46
2023/12/30 05:21:00;;;;;;;3.85;1.80;;;7.00;99.90;;;;;;5067303;28;20108;-47
2023/12/30 05:23:26;;;;;;;3.50;0.88;;;7.00;99.90;;;;;;5067552;28;20179;-47
2023/12/30 05:25:52;;;;;;;3.75;1.10;;;7.00;99.90;;;;;;5067177;28;20048;-46
2023/12/30 05:28:17;;;;;;;2.88;1.15;;;6.90;99.90;;;;;;5066909;28;20032;-48
2023/12/30 05:30:43;;;;;;;2.28;1.10;;;6.90;99.90;;;;;;5067389;28;20022;-46
2023/12/30 05:33:09;;;;;;;4.30;0.63;;;6.90;99.90;;;;;;5067513;28;20029;-46
2023/12/30 05:35:35;;;;;;;2.45;0.70;;;6.80;99.90;;;;;;5067297;28;20028;-47
2023/12/30 05:38:02;;;;;;;3.03;0.80;;;6.80;99.90;;;;;;5067396;28;20028;-47
2023/12/30 05:40:28;;;;;;;0.80;0.50;;;6.80;99.90;;;;;;5066958;28;20044;-46
2023/12/30 05:42:53;;;;;;;1.80;0.70;;;6.70;99.90;;;;;;5067225;28;20033;-46
2023/12/30 05:45:19;;;;;;;4.07;0.85;;;6.60;99.90;;;;;;5065941;28;20075;-46
2023/12/30 05:47:45;;;;;;;4.05;0.80;;;6.60;99.90;;;;;;5067089;28;20025;-45
2023/12/30 05:50:13;;;;;;;5.47;1.00;;;6.60;99.90;;;;;;5065953;28;20040;-46
2023/12/30 05:52:40;;;;;;;5.45;0.90;;;6.50;99.90;;;;;;5066966;28;20226;-47
2023/12/30 05:55:06;;;;;;;3.10;0.70;;;6.50;99.90;;;;;;5066643;28;20032;-49
2023/12/30 05:57:31;;;;;;;5.93;0.90;;;6.50;99.90;;;;;;5065712;28;20029;-48
2023/12/30 05:59:57;;;;;;;1.00;0.63;;;6.50;99.90;;;;;;5065775;28;20039;-49
2023/12/30 06:02:23;;;;;;;5.07;0.80;;;6.50;99.90;;;;;;5066830;28;20029;-47
2023/12/30 06:04:48;;;;;;;2.65;0.73;;;6.40;99.90;;;;;;5066779;28;20037;-49
2023/12/30 06:07:14;;;;;;;4.28;0.80;;;6.40;99.90;;;;;;5065495;28;20068;-46
2023/12/30 06:09:41;;;;;;;6.57;1.00;;;6.40;99.90;;;;;;5065382;28;20045;-50
2023/12/30 06:12:07;;;;;;;4.50;1.38;;;6.40;99.90;;;;;;5066148;28;20017;-49
2023/12/30 06:14:35;;;;;;;2.88;0.70;;;6.30;99.90;;;;;;5066161;28;20203;-48
2023/12/30 06:17:00;;;;;;;2.15;0.80;;;6.30;99.90;;;;;;5066147;28;20098;-48
2023/12/30 06:19:26;;;;;;;5.05;0.80;;;6.30;99.90;;;;;;5066445;28;20041;-47
2023/12/30 06:21:52;;;;;;;3.10;0.70;;;6.30;99.90;;;;;;5066413;28;20032;-48
2023/12/30 06:24:17;;;;;;;4.78;0.73;;;6.30;99.90;;;;;;5066353;28;20028;-50
2023/12/30 06:26:44;;;;;;;2.90;1.25;;;6.30;99.90;;;;;;5065345;28;20036;-49
2023/12/30 06:29:10;;;;;;;3.67;0.80;;;6.30;99.90;;;;;;5065087;28;20044;-48
2023/12/30 06:31:42;;;;;;;5.10;0.80;;;6.30;99.90;;;;;;5048751;28;20266;-49
2023/12/30 06:34:08;;;;;;;2.53;0.90;;;6.30;99.90;;;;;;5066123;28;20036;-48
2023/12/30 06:36:33;;;;;;;3.75;0.80;;;6.30;99.90;;;;;;5066232;28;20032;-51
2023/12/30 06:38:59;;;;;;;2.65;0.63;;;6.30;99.90;;;;;;5065907;28;20100;-49
2023/12/30 06:41:25;;;;;;;4.88;0.77;;;6.30;99.90;;;;;;5065924;28;20028;-49
2023/12/30 06:43:51;;;;;;;3.88;0.77;;;6.40;99.90;;;;;;5065629;28;20030;-49
2023/12/30 06:46:21;;;;;;;2.28;0.57;;;6.40;99.90;;;;;;5048462;28;20029;-50
2023/12/30 06:48:47;;;;;;;4.03;0.82;;;6.40;99.90;;;;;;5065986;28;20215;-49
2023/12/30 06:51:13;;;;;;;4.63;0.80;;;6.40;99.90;;;;;;5065949;28;20199;-49
2023/12/30 06:53:38;;;;;;;3.78;0.95;;;6.40;99.90;;;;;;5065774;28;20053;-49
2023/12/30 06:56:05;;;;;;;1.73;0.63;;;6.40;99.90;;;;;;5064911;28;20214;-48
2023/12/30 06:58:30;;;;;;;1.10;0.65;;;6.40;99.90;;;;;;5065924;28;20163;-49
2023/12/30 07:00:56;;;;;;;2.70;0.85;;;6.50;99.90;;;;;;5065705;28;20036;-47
2023/12/30 07:03:22;;;;;;;2.35;0.80;;;6.50;99.90;;;;;;5065453;28;20036;-47
2023/12/30 07:05:48;;;;;;;4.60;0.90;;;6.50;99.90;;;;;;5064496;28;20048;-47
2023/12/30 07:08:14;;;;;;;1.58;0.70;;;6.50;99.90;;;;;;5065315;28;20045;-46
2023/12/30 07:10:39;;;;;;;3.17;0.77;;;6.60;99.90;;;;;;5065537;28;20029;-49
2023/12/30 07:13:06;;;;;;;2.53;1.08;;;6.60;99.90;;;;;;5065181;28;20053;-49
2023/12/30 07:15:32;;;;;;;2.05;0.70;;;6.60;99.90;;;;;;5064357;28;20029;-49
2023/12/30 07:17:57;;;;;;;3.35;0.80;;;6.60;99.90;;;;;;5065517;28;20025;-50
2023/12/30 07:20:23;;;;;;;2.88;0.80;;;6.70;99.90;;;;;;5065407;28;20029;-50
2023/12/30 07:22:49;;;;;;;3.20;0.77;;;6.70;99.90;;;;;;5065451;28;20033;-50
2023/12/30 07:25:14;;;;;;;2.05;0.88;;;6.70;99.90;;;;;;5064220;28;20102;-49
2023/12/30 07:27:40;;;;;;;4.03;0.88;;;6.70;99.90;;;;;;5065530;28;20187;-47
2023/12/30 07:30:06;;;;;;;2.42;0.75;;;6.80;99.90;;;;;;5065168;28;20092;-46
2023/12/30 07:32:32;;;;;;;3.47;0.63;;;6.80;99.90;;;;;;5065416;28;20040;-47
2023/12/30 07:34:58;;;;;;;3.20;0.98;;;6.80;99.90;;;;;;5065409;28;20021;-49
2023/12/30 07:37:24;;;;;;;3.50;1.10;;;6.80;99.90;;;;;;5065411;28;20033;-49
2023/12/30 07:39:50;;;;;;;1.65;0.80;;;6.80;99.90;;;;;;5068918;28;20086;-49
2023/12/30 07:42:19;;;;;;;1.55;0.80;;;6.80;99.90;;;;;;5068368;28;20025;-49
2023/12/30 07:44:44;;;;;;;3.90;1.75;;;6.90;99.90;;;;;;5052030;28;20041;-50
2023/12/30 07:47:10;;;;;;;3.85;0.70;;;6.90;99.90;;;;;;5068316;28;20037;-49
2023/12/30 07:49:36;;;;;;;3.85;0.90;;;7.00;99.90;;;;;;5068096;28;20029;-49
2023/12/30 07:52:02;;;;;;;2.92;0.68;;;7.00;99.90;;;;;;5069356;28;20389;-49
2023/12/30 07:54:27;;;;;;;1.30;0.60;;;7.10;99.90;;;;;;5069298;28;20088;-48
2023/12/30 07:56:53;;;;;;;4.07;1.00;;;7.30;99.90;;;;;;5069166;28;20032;-46
2023/12/30 07:59:19;;;;;;;2.35;0.77;;;8.10;99.90;;;;;;5069077;28;20018;-49
2023/12/30 08:01:44;;;;;;;3.13;0.95;;;8.50;99.90;;;;;;5068887;28;20052;-48
2023/12/30 08:04:10;;;;;;;4.32;0.95;;;8.80;99.90;;;;;;5067717;28;20029;-49
2023/12/30 08:06:36;;;;;;;9.70;2.00;;;9.10;99.90;;;;;;5067726;28;20033;-49
2023/12/30 08:09:02;;;;;;;2.38;0.95;;;9.20;99.90;;;;;;5068409;28;20052;-48
2023/12/30 08:11:28;;;;;;;2.38;0.98;;;9.20;99.90;;;;;;5068755;28;20275;-47
2023/12/30 08:13:53;;;;;;;3.63;1.15;;;9.30;99.90;;;;;;5068745;28;20039;-47
2023/12/30 08:16:19;;;;;;;8.80;2.00;;;9.40;99.90;;;;;;5067824;28;20025;-48
2023/12/30 08:18:45;;;;;;;3.60;1.35;;;9.30;99.90;;;;;;5068794;28;20032;-49
2023/12/30 08:21:10;;;;;;;12.98;2.10;;;9.30;99.90;;;;;;5068651;28;20092;-50
2023/12/30 08:23:36;;;;;;;6.88;1.70;;;9.50;99.90;;;;;;5068540;28;20205;-48
2023/12/30 08:26:02;;;;;;;8.23;1.42;;;9.60;99.90;;;;;;5068492;28;20226;-47
2023/12/30 08:28:27;;;;;;;2.33;1.40;;;9.70;99.90;;;;;;5067621;28;20056;-47
2023/12/30 08:30:54;;;;;;;9.18;1.42;;;9.70;99.90;;;;;;5068448;28;20033;-46
2023/12/30 08:33:20;;;;;;;9.65;1.70;;;9.70;99.90;;;;;;5068389;28;20074;-47
2023/12/30 08:35:48;;;;;;;10.93;2.05;;;9.80;99.90;;;;;;5067965;28;20056;-46
2023/12/30 08:38:15;;;;;;;5.70;1.40;;;9.80;99.90;;;;;;5067894;28;20346;-47
2023/12/30 08:40:42;;;;;;;9.30;2.50;;;9.90;99.90;;;;;;5068771;28;20120;-46
2023/12/30 08:43:08;;;;;;;10.48;2.05;;;9.90;99.90;;;;;;5068231;28;20032;-48
2023/12/30 08:45:34;;;;;;;7.13;1.50;;;10.00;99.90;;;;;;5068192;28;20174;-47
2023/12/30 08:48:00;;;;;;;6.55;1.45;;;10.00;99.90;;;;;;5067120;28;20190;-47
2023/12/30 08:50:26;;;;;;;24.88;2.30;;;10.00;99.90;;;;;;5066588;28;20037;-46
2023/12/30 08:52:52;;;;;;;12.95;3.40;;;10.00;99.90;;;;;;5067666;28;20285;-46
2023/12/30 08:55:17;;;;;;;5.47;1.38;;;10.00;99.90;;;;;;5068191;28;20067;-47
2023/12/30 08:57:43;;;;;;;7.50;1.55;;;10.00;99.90;;;;;;5066914;28;20080;-47
2023/12/30 09:00:09;;;;;;;13.15;1.50;;;10.00;99.90;;;;;;5067980;28;20040;-46
2023/12/30 09:02:35;;;;;;;10.48;2.15;;;10.00;99.90;;;;;;5067924;28;20029;-46
2023/12/30 09:05:02;;;;;;;8.07;2.03;;;9.90;99.90;;;;;;5068087;28;20033;-47
2023/12/30 09:07:29;;;;;;;10.95;2.10;;;9.80;99.90;;;;;;5067631;28;20036;-47
2023/12/30 09:09:56;;;;;;;7.72;1.77;;;9.80;99.90;;;;;;5067507;28;20207;-47
2023/12/30 09:12:22;;;;;;;9.52;1.67;;;9.70;99.90;;;;;;5067905;28;20334;-48
2023/12/30 09:14:47;;;;;;;12.98;2.13;;;9.70;99.90;;;;;;5067744;28;20028;-48
2023/12/30 09:17:13;;;;;;;6.13;1.10;;;9.70;99.90;;;;;;5067603;28;20036;-49
2023/12/30 09:19:39;;;;;;;6.22;1.15;;;9.70;99.90;;;;;;5066566;28;20039;-49
2023/12/30 09:22:07;;;;;;;4.60;1.17;;;9.70;99.90;;;;;;5066476;28;20197;-49
2023/12/30 09:24:33;;;;;;;9.25;1.55;;;9.70;99.90;;;;;;5067644;28;20032;-47
2023/12/30 09:26:59;;;;;;;6.28;1.30;;;9.70;99.90;;;;;;5067666;28;20029;-48
2023/12/30 09:29:25;;;;;;;8.93;1.23;;;9.70;99.90;;;;;;5067283;28;20029;-49
2023/12/30 09:31:50;;;;;;;5.22;1.42;;;9.70;99.90;;;;;;5067568;28;20093;-50
2023/12/30 09:34:16;;;;;;;11.50;1.75;;;9.70;99.90;;;;;;5067614;28;20279;-49
2023/12/30 09:36:42;;;;;;;6.68;1.30;;;9.70;99.90;;;;;;5067322;28;20148;-49
2023/12/30 09:39:11;;;;;;;13.27;2.53;;;9.80;99.90;;;;;;5066902;28;20088;-47
2023/12/30 09:41:39;;;;;;;12.02;2.10;;;9.70;99.90;;;;;;5067152;28;20044;-47
2023/12/30 09:44:05;;;;;;;15.93;2.08;;;9.80;99.90;;;;;;5067148;28;20052;-47
2023/12/30 09:46:31;;;;;;;7.93;2.03;;;9.80;99.90;;;;;;5049481;28;20025;-46
2023/12/30 09:48:56;;;;;;;9.70;2.00;;;9.80;99.90;;;;;;5049314;28;20029;-50
2023/12/30 09:51:22;;;;;;;9.23;2.10;;;9.70;99.90;;;;;;5066009;28;20306;-47
2023/12/30 09:53:48;;;;;;;7.07;2.00;;;9.70;99.90;;;;;;5066888;28;20035;-48
2023/12/30 09:56:14;;;;;;;12.05;3.30;;;9.70;99.90;;;;;;5065824;28;20029;-47
2023/12/30 09:58:39;;;;;;;11.45;1.98;;;9.60;99.90;;;;;;5049069;28;20183;-50
2023/12/30 10:01:05;;;;;;;12.50;2.30;;;9.60;99.90;;;;;;5065516;28;20052;-47
2023/12/30 10:03:31;;;;;;;18.58;3.03;;;9.70;99.90;;;;;;5066737;28;20028;-48
2023/12/30 10:06:01;;;;;;;13.80;2.55;;;9.70;99.90;;;;;;5065678;28;20032;-47
2023/12/30 10:08:27;;;;;;;13.98;2.33;;;9.70;99.90;;;;;;5049130;28;20044;-49
2023/12/30 10:10:54;;;;;;;11.25;2.60;;;9.70;99.90;;;;;;5066521;28;20033;-50
2023/12/30 10:13:25;;;;;;;12.50;3.55;;;9.70;99.90;;;;;;5065541;28;20017;-50
2023/12/30 10:15:52;;;;;;;16.13;3.58;;;9.70;99.90;;;;;;5065455;28;20028;-49
2023/12/30 10:18:17;;;;;;;10.18;2.70;;;9.70;99.90;;;;;;5066381;28;20029;-48
2023/12/30 10:20:44;;;;;;;36.13;13.75;;;9.70;99.90;;;;;;5065476;28;20040;-50
2023/12/30 10:23:10;;;;;;;64.00;26.98;;;9.80;99.90;;;;;;5065300;28;20028;-49
2023/12/30 10:25:36;;;;;;;22.33;7.50;;;9.80;99.90;;;;;;5066359;28;20254;-50
2023/12/30 10:28:02;;;;;;;11.82;5.55;;;9.90;99.90;;;;;;5066028;28;20250;-48
2023/12/30 10:30:30;;;;;;;11.38;5.22;;;9.90;99.90;;;;;;5064723;28;20040;-50
2023/12/30 10:33:09;;;;;;;13.02;2.30;;;9.90;99.90;;;;;;5065162;28;20036;-50
2023/12/30 10:35:35;;;;;;;9.50;2.20;;;10.00;99.90;;;;;;5065151;28;20036;-50
2023/12/30 10:38:03;;;;;;;7.60;2.05;;;10.00;99.90;;;;;;5065949;28;20025;-50
2023/12/30 10:40:29;;;;;;;12.15;2.53;;;10.00;99.90;;;;;;5065026;28;20020;-50
2023/12/30 10:42:55;;;;;;;8.18;2.10;;;10.00;99.90;;;;;;5048326;28;20037;-50
2023/12/30 10:45:21;;;;;;;7.80;1.77;;;10.00;99.90;;;;;;5065468;28;20122;-50
2023/12/30 10:47:47;;;;;;;9.55;2.78;;;10.00;99.90;;;;;;5064683;28;20092;-50
2023/12/30 10:50:13;;;;;;;8.02;2.08;;;10.00;99.90;;;;;;5048058;28;20028;-48
2023/12/30 10:52:49;;;;;;;7.32;2.00;;;10.00;99.90;;;;;;5048405;28;20083;-47
2023/12/30 10:55:16;;;;;;;6.30;1.88;;;10.00;99.90;;;;;;5064983;28;20032;-49
2023/12/30 10:57:50;;;;;;;12.13;1.80;;;10.10;99.90;;;;;;5065671;28;20094;-48
2023/12/30 11:00:20;;;;;;;6.68;1.45;;;10.10;99.90;;;;;;5064507;28;20089;-49
2023/12/30 11:02:47;;;;;;;6.10;2.13;;;10.10;99.90;;;;;;5065194;28;20033;-48
2023/12/30 11:05:27;;;;;;;5.90;1.30;;;10.10;99.90;;;;;;5064708;28;20028;-50
2023/12/30 11:07:52;;;;;;;5.40;1.67;;;10.10;99.90;;;;;;5064475;28;20033;-49
2023/12/30 11:10:19;;;;;;;8.65;3.00;;;10.20;99.90;;;;;;5064480;28;20044;-49
2023/12/30 11:12:45;;;;;;;9.50;2.33;;;10.20;99.90;;;;;;5063939;28;20059;-47
2023/12/30 11:15:25;;;;;;;9.15;2.28;;;10.20;99.90;;;;;;5065438;28;20025;-50
2023/12/30 11:17:50;;;;;;;5.47;1.30;;;10.20;99.90;;;;;;5065468;28;20048;-48
2023/12/30 11:20:27;;;;;;;1.80;1.08;;;10.30;99.90;;;;;;5064488;28;20285;-49
2023/12/30 11:22:54;;;;;;;6.63;1.38;;;10.30;99.90;;;;;;5065497;28;20290;-48
2023/12/30 11:25:20;;;;;;;10.32;1.83;;;10.40;99.90;;;;;;5048138;28;20305;-48
2023/12/30 11:27:55;;;;;;;7.80;1.42;;;10.40;99.90;;;;;;5064134;28;20107;-50
2023/12/30 11:30:24;;;;;;;7.18;1.38;;;10.40;99.90;;;;;;5047989;28;20233;-47
2023/12/30 11:32:52;;;;;;;4.20;1.67;;;10.40;99.90;;;;;;5063979;28;20037;-50
2023/12/30 11:35:18;;;;;;;3.35;1.25;;;10.40;99.90;;;;;;5064147;28;20049;-50
2023/12/30 11:37:46;;;;;;;7.95;1.75;;;10.50;99.90;;;;;;5064921;28;20075;-51
2023/12/30 11:40:13;;;;;;;23.95;12.88;;;10.50;99.90;;;;;;5031612;28;20029;-50
2023/12/30 11:42:39;;;;;;;16.40;4.32;;;10.50;99.90;;;;;;5047533;28;20037;-50
2023/12/30 11:45:05;;;;;;;24.33;13.27;;;10.50;99.90;;;;;;5064026;28;20029;-50
2023/12/30 11:47:31;;;;;;;8.60;2.05;;;10.50;99.90;;;;;;5063879;28;20313;-52
2023/12/30 11:50:03;;;;;;;9.90;2.05;;;10.50;99.90;;;;;;5063860;28;20029;-49
2023/12/30 11:52:29;;;;;;;6.70;2.15;;;10.40;99.90;;;;;;5064721;28;20017;-50
2023/12/30 11:54:55;;;;;;;13.18;3.17;;;10.40;99.90;;;;;;5064694;28;20182;-49
2023/12/30 11:57:20;;;;;;;15.35;3.90;;;10.50;99.90;;;;;;5064870;28;20084;-50
2023/12/30 11:59:46;;;;;;;13.18;4.72;;;10.50;99.90;;;;;;5064777;28;20088;-50
2023/12/30 12:02:12;;;;;;;4.25;1.52;;;10.50;99.90;;;;;;5064968;28;20047;-48
2023/12/30 12:04:38;;;;;;;12.38;2.70;;;10.40;99.90;;;;;;5064997;28;20029;-48
2023/12/30 12:07:04;;;;;;;15.32;3.05;;;10.50;99.90;;;;;;5064861;28;20316;-47
2023/12/30 12:09:30;;;;;;;9.38;2.22;;;10.50;99.90;;;;;;5064422;28;20049;-48
2023/12/30 12:11:55;;;;;;;10.00;2.53;;;10.50;99.90;;;;;;5046777;28;20040;-48
2023/12/30 12:14:21;;;;;;;11.43;3.17;;;10.50;99.90;;;;;;5063665;28;20085;-48
2023/12/30 12:16:46;;;;;;;17.00;2.78;;;10.50;99.90;;;;;;5064679;28;20135;-48
2023/12/30 12:19:15;;;;;;;8.02;1.67;;;10.50;99.90;;;;;;5064634;28;20039;-48
2023/12/30 12:21:41;;;;;;;14.50;2.65;;;10.60;99.90;;;;;;5063214;28;20043;-50
2023/12/30 12:24:06;;;;;;;13.15;2.50;;;10.60;99.90;;;;;;5065547;28;20077;-50
2023/12/30 12:26:32;;;;;;;9.25;2.38;;;10.60;99.90;;;;;;5067384;28;20040;-50
2023/12/30 12:28:58;;;;;;;8.25;1.83;;;10.60;99.90;;;;;;5068257;28;20047;-50
2023/12/30 12:31:29;;;;;;;8.05;1.40;;;10.60;99.90;;;;;;5050461;28;20100;-49
2023/12/30 12:33:54;;;;;;;6.57;1.80;;;10.50;99.90;;;;;;5068166;28;20037;-50
2023/12/30 12:36:20;;;;;;;8.48;3.55;;;10.50;99.90;;;;;;5068334;28;20032;-51
2023/12/30 12:38:47;;;;;;;8.13;4.18;;;10.50;99.90;;;;;;5067258;28;20084;-50
2023/12/30 12:41:13;;;;;;;6.63;2.00;;;10.50;99.90;;;;;;5066936;28;20328;-49
2023/12/30 12:43:39;;;;;;;11.15;5.18;;;10.50;99.90;;;;;;5066956;28;20025;-50
2023/12/30 12:46:04;;;;;;;11.88;2.72;;;10.50;99.90;;;;;;5067065;28;20118;-50